This is the latest recevied weather packets stored in our database for station/object KF0FSA. If no packets are shown the sender has not sent any weather packets the latest 1 day(s).
| Time | Temp. | Humidity | Pressure | Rain* | Wind** | Luminosity | Snow |
|---|---|---|---|---|---|---|---|
| 1778003633 | 10° C | 38% | 960 hPa | 0 mm | 3.13 m/s, 325° | 423 W/m² | - |
| 1778003333 | 10° C | 37% | 959.8 hPa | 0 mm | 3.13 m/s, 300° | 851 W/m² | - |
| 1778003033 | 10.56° C | 37% | 959.6 hPa | 0 mm | 3.13 m/s, 346° | 985 W/m² | - |
| 1778002732 | 10° C | 40% | 960 hPa | 0 mm | 3.13 m/s, 8° | 427 W/m² | - |
| 1778002433 | 10° C | 40% | 959.5 hPa | 0 mm | 3.13 m/s, 316° | 1216 W/m² | - |
| 1778002131 | 8.89° C | 40% | 959.7 hPa | 0 mm | 3.13 m/s, 331° | 1106 W/m² | - |
| 1778001954 | 9.44° C | 40% | 960.1 hPa | 0 mm | 3.13 m/s, 303° | 421 W/m² | - |
| 1778001530 | 9.44° C | 39% | 960.1 hPa | 0 mm | 2.68 m/s, 304° | 421 W/m² | - |
| 1778001230 | 9.44° C | 38% | 959.8 hPa | 0 mm | 2.68 m/s, 293° | 469 W/m² | - |
| 1778000931 | 9.44° C | 40% | 959.8 hPa | 0 mm | 2.68 m/s, 352° | 557 W/m² | - |
| 1778000631 | 9.44° C | 40% | 959.5 hPa | 0 mm | 2.68 m/s, 311° | 910 W/m² | - |
| 1778000330 | 9.44° C | 39% | 959.9 hPa | 0 mm | 2.68 m/s, 332° | 346 W/m² | - |
| 1778000031 | 9.44° C | 40% | 959.4 hPa | 0 mm | 2.68 m/s, 11° | 976 W/m² | - |
| 1777999730 | 9.44° C | 39% | 959.8 hPa | 0 mm | 2.68 m/s, 330° | 339 W/m² | - |
| 1777999431 | 10° C | 39% | 959.5 hPa | 0 mm | 2.68 m/s, 290° | 562 W/m² | - |
| 1777999127 | 10° C | 38% | 959.4 hPa | 0 mm | 3.13 m/s, 322° | 610 W/m² | - |
| 1777998952 | 10° C | 38% | 959.4 hPa | 0 mm | 3.13 m/s, 303° | 559 W/m² | - |
| 1777998529 | 9.44° C | 39% | 959.2 hPa | 0 mm | 2.68 m/s, 325° | 958 W/m² | - |
| 1777998227 | 9.44° C | 38% | 959 hPa | 0 mm | 2.24 m/s, 320° | 961 W/m² | - |
| 1777998052 | 9.44° C | 39% | 959.1 hPa | 0 mm | 2.24 m/s, 343° | 852 W/m² | - |
| 1777997628 | 9.44° C | 39% | 959.2 hPa | 0 mm | 2.24 m/s, 41° | 745 W/m² | - |
| 1777997328 | 9.44° C | 40% | 959.4 hPa | 0 mm | 2.68 m/s, 326° | 377 W/m² | - |
| 1777997028 | 9.44° C | 38% | 959 hPa | 0 mm | 2.68 m/s, 289° | 745 W/m² | - |
| 1777996728 | 9.44° C | 39% | 959.1 hPa | 0 mm | 2.24 m/s, 339° | 747 W/m² | - |
| 1777996553 | 8.89° C | 39% | 959.1 hPa | 0 mm | 2.68 m/s, 327° | 758 W/m² | - |
* Rain latest hour (hover to see other rain measurements)
** Current wind speed in m/s (hover to see current wind gust speed)